sensor_id;sensor_type;location;lat;lon;timestamp;P1;durP1;ratioP1;P2;durP2;ratioP2
61385;SDS011;47256;18.904;-99.054;2023-09-18T00:01:51;8.30;;;7.50;;
61385;SDS011;47256;18.904;-99.054;2023-09-18T00:04:19;8.23;;;7.40;;
61385;SDS011;47256;18.904;-99.054;2023-09-18T00:06:47;12.88;;;7.63;;
61385;SDS011;47256;18.904;-99.054;2023-09-18T00:09:14;9.25;;;7.30;;
61385;SDS011;47256;18.904;-99.054;2023-09-18T00:11:42;12.43;;;8.32;;
61385;SDS011;47256;18.904;-99.054;2023-09-18T00:14:09;9.68;;;8.35;;
61385;SDS011;47256;18.904;-99.054;2023-09-18T00:16:37;11.60;;;7.97;;
61385;SDS011;47256;18.904;-99.054;2023-09-18T00:19:04;12.63;;;8.35;;
61385;SDS011;47256;18.904;-99.054;2023-09-18T00:21:36;13.85;;;8.63;;
61385;SDS011;47256;18.904;-99.054;2023-09-18T00:24:03;16.65;;;9.57;;
61385;SDS011;47256;18.904;-99.054;2023-09-18T00:26:31;13.18;;;9.50;;
61385;SDS011;47256;18.904;-99.054;2023-09-18T00:28:59;14.50;;;9.25;;
61385;SDS011;47256;18.904;-99.054;2023-09-18T00:31:26;14.52;;;9.45;;
61385;SDS011;47256;18.904;-99.054;2023-09-18T00:33:53;12.75;;;8.65;;
61385;SDS011;47256;18.904;-99.054;2023-09-18T00:36:21;12.32;;;8.35;;
61385;SDS011;47256;18.904;-99.054;2023-09-18T00:38:48;12.65;;;8.02;;
61385;SDS011;47256;18.904;-99.054;2023-09-18T00:41:15;10.18;;;7.97;;
61385;SDS011;47256;18.904;-99.054;2023-09-18T00:43:46;15.30;;;8.95;;
61385;SDS011;47256;18.904;-99.054;2023-09-18T00:46:18;15.25;;;9.27;;
61385;SDS011;47256;18.904;-99.054;2023-09-18T00:48:46;9.68;;;8.02;;
61385;SDS011;47256;18.904;-99.054;2023-09-18T00:51:13;12.45;;;7.50;;
61385;SDS011;47256;18.904;-99.054;2023-09-18T00:53:45;16.30;;;8.35;;
61385;SDS011;47256;18.904;-99.054;2023-09-18T00:56:16;15.48;;;7.50;;
61385;SDS011;47256;18.904;-99.054;2023-09-18T00:58:46;11.50;;;7.82;;
61385;SDS011;47256;18.904;-99.054;2023-09-18T01:01:15;14.55;;;7.68;;
61385;SDS011;47256;18.904;-99.054;2023-09-18T01:03:49;12.43;;;8.63;;
61385;SDS011;47256;18.904;-99.054;2023-09-18T01:06:19;10.00;;;8.13;;
61385;SDS011;47256;18.904;-99.054;2023-09-18T01:08:47;11.27;;;8.75;;
61385;SDS011;47256;18.904;-99.054;2023-09-18T01:11:22;10.60;;;7.82;;
61385;SDS011;47256;18.904;-99.054;2023-09-18T01:14:13;14.52;;;7.88;;
61385;SDS011;47256;18.904;-99.054;2023-09-18T01:16:58;9.88;;;8.27;;
61385;SDS011;47256;18.904;-99.054;2023-09-18T01:19:34;14.13;;;9.10;;
61385;SDS011;47256;18.904;-99.054;2023-09-18T01:22:03;10.43;;;8.10;;
61385;SDS011;47256;18.904;-99.054;2023-09-18T01:24:32;11.65;;;8.00;;
61385;SDS011;47256;18.904;-99.054;2023-09-18T01:27:00;13.65;;;8.63;;
61385;SDS011;47256;18.904;-99.054;2023-09-18T01:29:30;14.48;;;8.88;;
61385;SDS011;47256;18.904;-99.054;2023-09-18T01:31:58;14.57;;;9.32;;
61385;SDS011;47256;18.904;-99.054;2023-09-18T01:34:29;17.13;;;8.90;;
61385;SDS011;47256;18.904;-99.054;2023-09-18T01:36:59;14.80;;;9.52;;
61385;SDS011;47256;18.904;-99.054;2023-09-18T01:39:28;13.13;;;9.00;;
61385;SDS011;47256;18.904;-99.054;2023-09-18T01:42:02;14.57;;;8.82;;
61385;SDS011;47256;18.904;-99.054;2023-09-18T01:44:33;12.43;;;8.48;;
61385;SDS011;47256;18.904;-99.054;2023-09-18T01:47:02;13.18;;;8.60;;
61385;SDS011;47256;18.904;-99.054;2023-09-18T01:49:35;11.07;;;8.43;;
61385;SDS011;47256;18.904;-99.054;2023-09-18T01:52:04;14.38;;;9.15;;
61385;SDS011;47256;18.904;-99.054;2023-09-18T01:54:32;14.15;;;9.07;;
61385;SDS011;47256;18.904;-99.054;2023-09-18T01:57:02;12.68;;;8.15;;
61385;SDS011;47256;18.904;-99.054;2023-09-18T01:59:30;11.05;;;9.38;;
61385;SDS011;47256;18.904;-99.054;2023-09-18T02:01:57;12.52;;;9.65;;
61385;SDS011;47256;18.904;-99.054;2023-09-18T02:04:25;10.52;;;8.55;;
61385;SDS011;47256;18.904;-99.054;2023-09-18T02:06:53;13.05;;;9.15;;
61385;SDS011;47256;18.904;-99.054;2023-09-18T02:09:20;11.68;;;9.07;;
61385;SDS011;47256;18.904;-99.054;2023-09-18T02:11:47;14.77;;;9.60;;
61385;SDS011;47256;18.904;-99.054;2023-09-18T02:14:15;14.27;;;9.73;;
61385;SDS011;47256;18.904;-99.054;2023-09-18T02:16:43;17.42;;;9.85;;
61385;SDS011;47256;18.904;-99.054;2023-09-18T02:19:12;19.20;;;9.68;;
61385;SDS011;47256;18.904;-99.054;2023-09-18T02:21:40;17.10;;;10.60;;
61385;SDS011;47256;18.904;-99.054;2023-09-18T02:24:07;13.90;;;9.25;;
61385;SDS011;47256;18.904;-99.054;2023-09-18T02:26:35;12.00;;;8.60;;
61385;SDS011;47256;18.904;-99.054;2023-09-18T02:29:05;19.60;;;9.52;;
61385;SDS011;47256;18.904;-99.054;2023-09-18T02:31:37;11.70;;;9.30;;
61385;SDS011;47256;18.904;-99.054;2023-09-18T02:34:04;12.15;;;9.95;;
61385;SDS011;47256;18.904;-99.054;2023-09-18T02:36:33;14.40;;;10.65;;
61385;SDS011;47256;18.904;-99.054;2023-09-18T02:39:00;13.18;;;10.07;;
61385;SDS011;47256;18.904;-99.054;2023-09-18T02:41:28;18.20;;;11.65;;
61385;SDS011;47256;18.904;-99.054;2023-09-18T02:43:56;18.42;;;10.05;;
61385;SDS011;47256;18.904;-99.054;2023-09-18T02:46:24;12.40;;;10.30;;
61385;SDS011;47256;18.904;-99.054;2023-09-18T02:48:51;11.05;;;9.57;;
61385;SDS011;47256;18.904;-99.054;2023-09-18T02:51:18;20.15;;;10.93;;
61385;SDS011;47256;18.904;-99.054;2023-09-18T02:53:47;16.88;;;11.55;;
61385;SDS011;47256;18.904;-99.054;2023-09-18T02:56:15;18.05;;;10.40;;
61385;SDS011;47256;18.904;-99.054;2023-09-18T02:58:42;18.23;;;10.57;;
61385;SDS011;47256;18.904;-99.054;2023-09-18T03:01:10;14.45;;;9.60;;
61385;SDS011;47256;18.904;-99.054;2023-09-18T03:03:38;16.45;;;11.27;;
61385;SDS011;47256;18.904;-99.054;2023-09-18T03:06:08;12.93;;;8.90;;
61385;SDS011;47256;18.904;-99.054;2023-09-18T03:08:35;10.27;;;9.23;;
61385;SDS011;47256;18.904;-99.054;2023-09-18T03:11:10;16.60;;;9.85;;
61385;SDS011;47256;18.904;-99.054;2023-09-18T03:13:42;13.27;;;9.60;;
61385;SDS011;47256;18.904;-99.054;2023-09-18T03:16:15;13.23;;;9.27;;
61385;SDS011;47256;18.904;-99.054;2023-09-18T03:18:43;11.60;;;9.15;;
61385;SDS011;47256;18.904;-99.054;2023-09-18T03:21:11;14.60;;;10.52;;
61385;SDS011;47256;18.904;-99.054;2023-09-18T03:23:38;20.05;;;10.23;;
61385;SDS011;47256;18.904;-99.054;2023-09-18T03:26:06;18.35;;;10.07;;
61385;SDS011;47256;18.904;-99.054;2023-09-18T03:28:33;16.25;;;9.40;;
61385;SDS011;47256;18.904;-99.054;2023-09-18T03:31:01;14.48;;;9.40;;
61385;SDS011;47256;18.904;-99.054;2023-09-18T03:33:30;10.52;;;9.38;;
61385;SDS011;47256;18.904;-99.054;2023-09-18T03:35:58;11.65;;;9.57;;
61385;SDS011;47256;18.904;-99.054;2023-09-18T03:38:29;17.13;;;9.30;;
61385;SDS011;47256;18.904;-99.054;2023-09-18T03:41:01;11.13;;;9.63;;
61385;SDS011;47256;18.904;-99.054;2023-09-18T03:43:28;14.07;;;8.82;;
61385;SDS011;47256;18.904;-99.054;2023-09-18T03:46:05;12.82;;;9.13;;
61385;SDS011;47256;18.904;-99.054;2023-09-18T03:48:42;11.57;;;8.38;;
61385;SDS011;47256;18.904;-99.054;2023-09-18T03:51:09;10.00;;;8.23;;
61385;SDS011;47256;18.904;-99.054;2023-09-18T03:53:42;11.52;;;9.38;;
61385;SDS011;47256;18.904;-99.054;2023-09-18T03:56:10;11.52;;;8.23;;
61385;SDS011;47256;18.904;-99.054;2023-09-18T03:58:38;14.02;;;9.07;;
61385;SDS011;47256;18.904;-99.054;2023-09-18T04:01:05;12.38;;;8.15;;
61385;SDS011;47256;18.904;-99.054;2023-09-18T04:03:35;17.63;;;8.63;;
61385;SDS011;47256;18.904;-99.054;2023-09-18T04:06:02;10.68;;;9.05;;
61385;SDS011;47256;18.904;-99.054;2023-09-18T04:08:29;9.90;;;7.18;;
61385;SDS011;47256;18.904;-99.054;2023-09-18T04:10:59;14.23;;;8.23;;
61385;SDS011;47256;18.904;-99.054;2023-09-18T04:13:27;13.73;;;8.93;;
61385;SDS011;47256;18.904;-99.054;2023-09-18T04:15:54;14.77;;;9.55;;
61385;SDS011;47256;18.904;-99.054;2023-09-18T04:18:23;21.52;;;9.63;;
61385;SDS011;47256;18.904;-99.054;2023-09-18T04:20:50;11.52;;;8.68;;
61385;SDS011;47256;18.904;-99.054;2023-09-18T04:23:19;13.77;;;9.57;;
61385;SDS011;47256;18.904;-99.054;2023-09-18T04:25:53;21.10;;;9.00;;
61385;SDS011;47256;18.904;-99.054;2023-09-18T04:28:22;10.63;;;9.15;;
61385;SDS011;47256;18.904;-99.054;2023-09-18T04:30:49;15.32;;;10.40;;
61385;SDS011;47256;18.904;-99.054;2023-09-18T04:33:17;12.23;;;9.10;;
61385;SDS011;47256;18.904;-99.054;2023-09-18T04:35:45;12.52;;;8.80;;
61385;SDS011;47256;18.904;-99.054;2023-09-18T04:38:13;11.15;;;8.52;;
61385;SDS011;47256;18.904;-99.054;2023-09-18T04:40:41;12.80;;;9.00;;
61385;SDS011;47256;18.904;-99.054;2023-09-18T04:43:08;14.02;;;8.68;;
61385;SDS011;47256;18.904;-99.054;2023-09-18T04:45:36;16.38;;;8.70;;
61385;SDS011;47256;18.904;-99.054;2023-09-18T04:48:04;11.75;;;9.15;;
61385;SDS011;47256;18.904;-99.054;2023-09-18T04:50:34;11.50;;;8.43;;
61385;SDS011;47256;18.904;-99.054;2023-09-18T04:53:01;14.70;;;8.90;;
61385;SDS011;47256;18.904;-99.054;2023-09-18T04:55:30;9.98;;;8.32;;
61385;SDS011;47256;18.904;-99.054;2023-09-18T04:57:58;16.92;;;9.73;;
61385;SDS011;47256;18.904;-99.054;2023-09-18T05:00:26;15.45;;;9.18;;
61385;SDS011;47256;18.904;-99.054;2023-09-18T05:02:55;15.05;;;9.07;;
61385;SDS011;47256;18.904;-99.054;2023-09-18T05:05:24;10.02;;;8.25;;
61385;SDS011;47256;18.904;-99.054;2023-09-18T05:07:51;13.32;;;9.40;;
61385;SDS011;47256;18.904;-99.054;2023-09-18T05:10:19;12.63;;;8.52;;
61385;SDS011;47256;18.904;-99.054;2023-09-18T05:12:48;16.52;;;8.40;;
61385;SDS011;47256;18.904;-99.054;2023-09-18T05:15:16;12.27;;;8.65;;
61385;SDS011;47256;18.904;-99.054;2023-09-18T05:17:44;10.35;;;8.63;;
61385;SDS011;47256;18.904;-99.054;2023-09-18T05:20:16;14.65;;;8.10;;
61385;SDS011;47256;18.904;-99.054;2023-09-18T05:22:44;12.43;;;7.80;;
61385;SDS011;47256;18.904;-99.054;2023-09-18T05:25:11;10.30;;;7.72;;
61385;SDS011;47256;18.904;-99.054;2023-09-18T05:27:41;10.85;;;8.85;;
61385;SDS011;47256;18.904;-99.054;2023-09-18T05:30:14;11.80;;;8.85;;
61385;SDS011;47256;18.904;-99.054;2023-09-18T05:32:42;13.18;;;8.60;;
61385;SDS011;47256;18.904;-99.054;2023-09-18T05:35:11;11.07;;;9.02;;
61385;SDS011;47256;18.904;-99.054;2023-09-18T05:37:39;12.18;;;8.73;;
61385;SDS011;47256;18.904;-99.054;2023-09-18T05:40:13;15.07;;;9.02;;
61385;SDS011;47256;18.904;-99.054;2023-09-18T05:42:41;12.13;;;8.43;;
61385;SDS011;47256;18.904;-99.054;2023-09-18T05:45:10;18.52;;;9.18;;
61385;SDS011;47256;18.904;-99.054;2023-09-18T05:47:39;12.75;;;8.13;;
61385;SDS011;47256;18.904;-99.054;2023-09-18T05:50:08;16.58;;;9.45;;
61385;SDS011;47256;18.904;-99.054;2023-09-18T05:52:36;9.77;;;8.70;;
61385;SDS011;47256;18.904;-99.054;2023-09-18T05:55:03;11.93;;;8.57;;
61385;SDS011;47256;18.904;-99.054;2023-09-18T05:57:34;18.20;;;8.93;;
61385;SDS011;47256;18.904;-99.054;2023-09-18T06:00:02;14.13;;;9.13;;
61385;SDS011;47256;18.904;-99.054;2023-09-18T06:02:38;15.23;;;8.75;;
61385;SDS011;47256;18.904;-99.054;2023-09-18T06:05:07;11.63;;;9.15;;
61385;SDS011;47256;18.904;-99.054;2023-09-18T06:07:37;15.52;;;9.40;;
61385;SDS011;47256;18.904;-99.054;2023-09-18T06:10:04;13.50;;;9.65;;
61385;SDS011;47256;18.904;-99.054;2023-09-18T06:12:32;12.95;;;9.88;;
61385;SDS011;47256;18.904;-99.054;2023-09-18T06:14:59;12.68;;;10.40;;
61385;SDS011;47256;18.904;-99.054;2023-09-18T06:17:27;15.07;;;9.23;;
61385;SDS011;47256;18.904;-99.054;2023-09-18T06:19:54;12.23;;;8.40;;
61385;SDS011;47256;18.904;-99.054;2023-09-18T06:22:21;13.63;;;10.45;;
61385;SDS011;47256;18.904;-99.054;2023-09-18T06:24:49;15.32;;;9.88;;
61385;SDS011;47256;18.904;-99.054;2023-09-18T06:27:16;14.18;;;10.35;;
61385;SDS011;47256;18.904;-99.054;2023-09-18T06:29:45;17.85;;;9.88;;
61385;SDS011;47256;18.904;-99.054;2023-09-18T06:32:13;13.85;;;9.10;;
61385;SDS011;47256;18.904;-99.054;2023-09-18T06:34:40;15.43;;;10.70;;
61385;SDS011;47256;18.904;-99.054;2023-09-18T06:37:10;14.23;;;9.77;;
61385;SDS011;47256;18.904;-99.054;2023-09-18T06:39:40;16.02;;;9.25;;
61385;SDS011;47256;18.904;-99.054;2023-09-18T06:42:07;20.52;;;9.02;;
61385;SDS011;47256;18.904;-99.054;2023-09-18T06:44:35;9.75;;;8.38;;
61385;SDS011;47256;18.904;-99.054;2023-09-18T06:47:04;18.35;;;8.73;;
61385;SDS011;47256;18.904;-99.054;2023-09-18T06:49:31;9.88;;;8.40;;
61385;SDS011;47256;18.904;-99.054;2023-09-18T06:52:00;11.85;;;9.05;;
61385;SDS011;47256;18.904;-99.054;2023-09-18T06:54:27;12.98;;;9.43;;
61385;SDS011;47256;18.904;-99.054;2023-09-18T06:56:54;11.85;;;8.90;;
61385;SDS011;47256;18.904;-99.054;2023-09-18T06:59:21;13.48;;;9.23;;
61385;SDS011;47256;18.904;-99.054;2023-09-18T07:01:50;12.20;;;9.23;;
61385;SDS011;47256;18.904;-99.054;2023-09-18T07:04:17;19.45;;;10.68;;
61385;SDS011;47256;18.904;-99.054;2023-09-18T07:06:45;19.67;;;9.25;;
61385;SDS011;47256;18.904;-99.054;2023-09-18T07:09:12;16.40;;;9.45;;
61385;SDS011;47256;18.904;-99.054;2023-09-18T07:11:40;14.95;;;9.00;;
61385;SDS011;47256;18.904;-99.054;2023-09-18T07:14:07;16.35;;;9.68;;
61385;SDS011;47256;18.904;-99.054;2023-09-18T07:16:35;17.90;;;10.48;;
61385;SDS011;47256;18.904;-99.054;2023-09-18T07:19:02;14.93;;;10.13;;
61385;SDS011;47256;18.904;-99.054;2023-09-18T07:21:32;17.75;;;9.57;;
61385;SDS011;47256;18.904;-99.054;2023-09-18T07:24:01;14.77;;;10.43;;
61385;SDS011;47256;18.904;-99.054;2023-09-18T07:26:28;15.85;;;11.20;;
61385;SDS011;47256;18.904;-99.054;2023-09-18T07:28:55;17.42;;;10.88;;
61385;SDS011;47256;18.904;-99.054;2023-09-18T07:31:22;13.73;;;11.20;;
61385;SDS011;47256;18.904;-99.054;2023-09-18T07:33:50;16.63;;;10.65;;
61385;SDS011;47256;18.904;-99.054;2023-09-18T07:36:19;16.02;;;10.65;;
61385;SDS011;47256;18.904;-99.054;2023-09-18T07:38:46;15.73;;;10.98;;
61385;SDS011;47256;18.904;-99.054;2023-09-18T07:41:14;15.00;;;9.52;;
61385;SDS011;47256;18.904;-99.054;2023-09-18T07:43:41;11.07;;;8.50;;
61385;SDS011;47256;18.904;-99.054;2023-09-18T07:46:15;11.57;;;9.38;;
61385;SDS011;47256;18.904;-99.054;2023-09-18T07:48:42;11.57;;;9.18;;
61385;SDS011;47256;18.904;-99.054;2023-09-18T07:51:12;15.25;;;8.70;;
61385;SDS011;47256;18.904;-99.054;2023-09-18T07:53:42;12.52;;;9.95;;
61385;SDS011;47256;18.904;-99.054;2023-09-18T07:56:10;20.73;;;9.70;;
61385;SDS011;47256;18.904;-99.054;2023-09-18T07:58:37;12.15;;;8.77;;
61385;SDS011;47256;18.904;-99.054;2023-09-18T08:01:06;18.92;;;9.73;;
61385;SDS011;47256;18.904;-99.054;2023-09-18T08:03:39;11.77;;;9.05;;
61385;SDS011;47256;18.904;-99.054;2023-09-18T08:06:07;15.43;;;9.35;;
61385;SDS011;47256;18.904;-99.054;2023-09-18T08:08:34;12.70;;;8.82;;
61385;SDS011;47256;18.904;-99.054;2023-09-18T08:11:06;12.95;;;9.35;;
61385;SDS011;47256;18.904;-99.054;2023-09-18T08:13:35;10.40;;;7.82;;
61385;SDS011;47256;18.904;-99.054;2023-09-18T08:16:03;15.18;;;8.77;;
61385;SDS011;47256;18.904;-99.054;2023-09-18T08:18:34;17.27;;;8.50;;
61385;SDS011;47256;18.904;-99.054;2023-09-18T08:21:01;13.00;;;7.88;;
61385;SDS011;47256;18.904;-99.054;2023-09-18T08:23:30;9.43;;;7.68;;
61385;SDS011;47256;18.904;-99.054;2023-09-18T08:25:58;12.18;;;7.22;;
61385;SDS011;47256;18.904;-99.054;2023-09-18T08:28:25;11.48;;;7.82;;
61385;SDS011;47256;18.904;-99.054;2023-09-18T08:30:53;9.98;;;7.60;;
61385;SDS011;47256;18.904;-99.054;2023-09-18T08:33:20;15.27;;;7.90;;
61385;SDS011;47256;18.904;-99.054;2023-09-18T08:35:47;10.85;;;7.80;;
61385;SDS011;47256;18.904;-99.054;2023-09-18T08:38:16;14.15;;;7.88;;
61385;SDS011;47256;18.904;-99.054;2023-09-18T08:40:43;11.88;;;7.85;;
61385;SDS011;47256;18.904;-99.054;2023-09-18T08:43:12;16.60;;;8.15;;
61385;SDS011;47256;18.904;-99.054;2023-09-18T08:45:46;13.95;;;7.15;;
61385;SDS011;47256;18.904;-99.054;2023-09-18T08:48:22;12.50;;;7.90;;
61385;SDS011;47256;18.904;-99.054;2023-09-18T08:50:49;13.90;;;7.38;;
61385;SDS011;47256;18.904;-99.054;2023-09-18T08:53:17;10.10;;;7.43;;
61385;SDS011;47256;18.904;-99.054;2023-09-18T08:55:44;14.73;;;8.20;;
61385;SDS011;47256;18.904;-99.054;2023-09-18T08:58:12;10.18;;;7.65;;
61385;SDS011;47256;18.904;-99.054;2023-09-18T09:00:41;13.48;;;7.75;;
61385;SDS011;47256;18.904;-99.054;2023-09-18T09:03:09;9.20;;;6.78;;
61385;SDS011;47256;18.904;-99.054;2023-09-18T09:05:38;15.98;;;8.20;;
61385;SDS011;47256;18.904;-99.054;2023-09-18T09:08:05;12.70;;;7.93;;
61385;SDS011;47256;18.904;-99.054;2023-09-18T09:10:33;11.35;;;8.05;;
61385;SDS011;47256;18.904;-99.054;2023-09-18T09:13:01;10.13;;;8.10;;
61385;SDS011;47256;18.904;-99.054;2023-09-18T09:15:32;15.07;;;7.95;;
61385;SDS011;47256;18.904;-99.054;2023-09-18T09:18:12;16.27;;;7.90;;
61385;SDS011;47256;18.904;-99.054;2023-09-18T09:20:56;16.40;;;7.80;;
61385;SDS011;47256;18.904;-99.054;2023-09-18T09:23:26;12.10;;;8.00;;
61385;SDS011;47256;18.904;-99.054;2023-09-18T09:26:13;11.07;;;7.93;;
61385;SDS011;47256;18.904;-99.054;2023-09-18T09:28:42;11.63;;;7.35;;
61385;SDS011;47256;18.904;-99.054;2023-09-18T09:31:10;10.95;;;7.97;;
61385;SDS011;47256;18.904;-99.054;2023-09-18T09:33:40;10.82;;;7.50;;
61385;SDS011;47256;18.904;-99.054;2023-09-18T09:36:20;9.90;;;7.35;;
61385;SDS011;47256;18.904;-99.054;2023-09-18T09:38:49;15.32;;;8.02;;
61385;SDS011;47256;18.904;-99.054;2023-09-18T09:41:24;10.83;;;7.73;;
61385;SDS011;47256;18.904;-99.054;2023-09-18T09:43:55;9.90;;;7.35;;
61385;SDS011;47256;18.904;-99.054;2023-09-18T09:46:24;12.32;;;8.15;;
61385;SDS011;47256;18.904;-99.054;2023-09-18T09:49:00;16.27;;;8.05;;
61385;SDS011;47256;18.904;-99.054;2023-09-18T09:51:29;9.45;;;7.78;;
61385;SDS011;47256;18.904;-99.054;2023-09-18T09:53:57;9.95;;;6.88;;
61385;SDS011;47256;18.904;-99.054;2023-09-18T09:56:46;11.68;;;7.55;;
61385;SDS011;47256;18.904;-99.054;2023-09-18T09:59:17;10.43;;;7.93;;
61385;SDS011;47256;18.904;-99.054;2023-09-18T10:01:46;8.63;;;7.00;;
61385;SDS011;47256;18.904;-99.054;2023-09-18T10:04:18;9.10;;;7.13;;
61385;SDS011;47256;18.904;-99.054;2023-09-18T10:06:51;13.63;;;7.55;;
61385;SDS011;47256;18.904;-99.054;2023-09-18T10:09:22;12.13;;;7.45;;
61385;SDS011;47256;18.904;-99.054;2023-09-18T10:11:52;17.80;;;8.18;;
61385;SDS011;47256;18.904;-99.054;2023-09-18T10:14:26;10.25;;;7.30;;
61385;SDS011;47256;18.904;-99.054;2023-09-18T10:17:08;15.95;;;7.75;;
61385;SDS011;47256;18.904;-99.054;2023-09-18T10:24:46;12.00;;;7.38;;
61385;SDS011;47256;18.904;-99.054;2023-09-18T10:27:16;17.73;;;8.68;;
61385;SDS011;47256;18.904;-99.054;2023-09-18T10:29:49;12.55;;;7.60;;
61385;SDS011;47256;18.904;-99.054;2023-09-18T10:32:19;12.93;;;8.10;;
61385;SDS011;47256;18.904;-99.054;2023-09-18T10:34:47;14.05;;;7.97;;
61385;SDS011;47256;18.904;-99.054;2023-09-18T10:37:15;14.95;;;8.50;;
61385;SDS011;47256;18.904;-99.054;2023-09-18T10:39:44;15.93;;;8.95;;
61385;SDS011;47256;18.904;-99.054;2023-09-18T10:42:14;13.95;;;7.80;;
61385;SDS011;47256;18.904;-99.054;2023-09-18T10:44:45;12.27;;;7.32;;
61385;SDS011;47256;18.904;-99.054;2023-09-18T10:47:13;9.65;;;7.70;;
61385;SDS011;47256;18.904;-99.054;2023-09-18T10:49:41;9.90;;;7.60;;
61385;SDS011;47256;18.904;-99.054;2023-09-18T10:52:11;11.57;;;7.82;;
61385;SDS011;47256;18.904;-99.054;2023-09-18T10:54:39;8.98;;;7.63;;
61385;SDS011;47256;18.904;-99.054;2023-09-18T10:57:07;12.27;;;7.75;;
61385;SDS011;47256;18.904;-99.054;2023-09-18T10:59:42;9.80;;;7.78;;
61385;SDS011;47256;18.904;-99.054;2023-09-18T11:02:15;11.35;;;8.13;;
61385;SDS011;47256;18.904;-99.054;2023-09-18T11:04:44;18.27;;;8.30;;
61385;SDS011;47256;18.904;-99.054;2023-09-18T11:07:21;16.02;;;7.50;;
61385;SDS011;47256;18.904;-99.054;2023-09-18T11:09:50;9.75;;;7.18;;
61385;SDS011;47256;18.904;-99.054;2023-09-18T11:12:17;10.07;;;7.15;;
61385;SDS011;47256;18.904;-99.054;2023-09-18T11:14:58;14.77;;;8.25;;
61385;SDS011;47256;18.904;-99.054;2023-09-18T11:17:36;13.82;;;8.60;;
61385;SDS011;47256;18.904;-99.054;2023-09-18T11:20:18;10.07;;;7.72;;
61385;SDS011;47256;18.904;-99.054;2023-09-18T11:22:47;15.70;;;7.88;;
61385;SDS011;47256;18.904;-99.054;2023-09-18T11:28:04;12.30;;;7.53;;
61385;SDS011;47256;18.904;-99.054;2023-09-18T11:30:35;10.75;;;8.13;;
61385;SDS011;47256;18.904;-99.054;2023-09-18T11:33:04;12.68;;;8.43;;
61385;SDS011;47256;18.904;-99.054;2023-09-18T11:35:35;11.10;;;8.25;;
61385;SDS011;47256;18.904;-99.054;2023-09-18T11:38:09;13.85;;;8.68;;
61385;SDS011;47256;18.904;-99.054;2023-09-18T11:40:38;12.68;;;9.55;;
61385;SDS011;47256;18.904;-99.054;2023-09-18T11:43:26;10.23;;;8.60;;
61385;SDS011;47256;18.904;-99.054;2023-09-18T11:46:01;14.65;;;8.50;;
61385;SDS011;47256;18.904;-99.054;2023-09-18T11:48:30;18.95;;;8.68;;
61385;SDS011;47256;18.904;-99.054;2023-09-18T11:51:00;11.90;;;8.57;;
61385;SDS011;47256;18.904;-99.054;2023-09-18T11:53:33;15.50;;;8.88;;
61385;SDS011;47256;18.904;-99.054;2023-09-18T11:56:03;12.00;;;8.65;;
61385;SDS011;47256;18.904;-99.054;2023-09-18T11:58:31;18.52;;;11.65;;
61385;SDS011;47256;18.904;-99.054;2023-09-18T12:01:12;20.90;;;14.02;;
61385;SDS011;47256;18.904;-99.054;2023-09-18T12:03:44;23.08;;;13.63;;
61385;SDS011;47256;18.904;-99.054;2023-09-18T12:06:13;13.10;;;9.98;;
61385;SDS011;47256;18.904;-99.054;2023-09-18T12:08:42;12.68;;;10.23;;
61385;SDS011;47256;18.904;-99.054;2023-09-18T12:11:10;13.43;;;10.25;;
61385;SDS011;47256;18.904;-99.054;2023-09-18T12:13:42;20.73;;;9.90;;
61385;SDS011;47256;18.904;-99.054;2023-09-18T12:16:11;13.45;;;8.57;;
61385;SDS011;47256;18.904;-99.054;2023-09-18T12:18:44;16.08;;;8.20;;
61385;SDS011;47256;18.904;-99.054;2023-09-18T12:21:14;13.20;;;8.32;;
61385;SDS011;47256;18.904;-99.054;2023-09-18T12:23:45;13.95;;;8.48;;
61385;SDS011;47256;18.904;-99.054;2023-09-18T12:26:14;18.77;;;8.38;;
61385;SDS011;47256;18.904;-99.054;2023-09-18T12:28:44;14.73;;;8.60;;
61385;SDS011;47256;18.904;-99.054;2023-09-18T12:31:13;10.70;;;8.25;;
61385;SDS011;47256;18.904;-99.054;2023-09-18T12:33:42;17.80;;;8.52;;
61385;SDS011;47256;18.904;-99.054;2023-09-18T12:36:12;14.00;;;8.80;;
61385;SDS011;47256;18.904;-99.054;2023-09-18T12:38:40;10.57;;;8.50;;
61385;SDS011;47256;18.904;-99.054;2023-09-18T12:41:08;11.60;;;8.57;;
61385;SDS011;47256;18.904;-99.054;2023-09-18T12:43:38;10.23;;;9.13;;
61385;SDS011;47256;18.904;-99.054;2023-09-18T12:46:10;16.55;;;9.77;;
61385;SDS011;47256;18.904;-99.054;2023-09-18T12:48:39;13.20;;;9.00;;
61385;SDS011;47256;18.904;-99.054;2023-09-18T12:51:11;11.93;;;9.13;;
61385;SDS011;47256;18.904;-99.054;2023-09-18T12:53:40;16.88;;;9.15;;
61385;SDS011;47256;18.904;-99.054;2023-09-18T12:56:08;12.30;;;9.07;;
61385;SDS011;47256;18.904;-99.054;2023-09-18T12:58:38;13.40;;;9.40;;
61385;SDS011;47256;18.904;-99.054;2023-09-18T13:01:08;13.50;;;8.23;;
61385;SDS011;47256;18.904;-99.054;2023-09-18T13:03:41;11.75;;;8.38;;
61385;SDS011;47256;18.904;-99.054;2023-09-18T13:06:12;12.88;;;8.40;;
61385;SDS011;47256;18.904;-99.054;2023-09-18T13:08:45;20.02;;;9.10;;
61385;SDS011;47256;18.904;-99.054;2023-09-18T13:11:14;12.57;;;8.52;;
61385;SDS011;47256;18.904;-99.054;2023-09-18T13:13:42;13.63;;;9.27;;
61385;SDS011;47256;18.904;-99.054;2023-09-18T13:16:10;19.63;;;8.70;;
61385;SDS011;47256;18.904;-99.054;2023-09-18T13:18:37;17.25;;;8.25;;
61385;SDS011;47256;18.904;-99.054;2023-09-18T13:21:09;18.25;;;8.50;;
61385;SDS011;47256;18.904;-99.054;2023-09-18T13:23:37;15.93;;;8.27;;
61385;SDS011;47256;18.904;-99.054;2023-09-18T13:26:05;18.38;;;8.38;;
61385;SDS011;47256;18.904;-99.054;2023-09-18T13:28:35;13.25;;;7.82;;
61385;SDS011;47256;18.904;-99.054;2023-09-18T13:31:03;16.00;;;8.90;;
61385;SDS011;47256;18.904;-99.054;2023-09-18T13:33:40;21.50;;;10.35;;
61385;SDS011;47256;18.904;-99.054;2023-09-18T13:36:11;16.63;;;9.45;;
61385;SDS011;47256;18.904;-99.054;2023-09-18T13:38:37;15.85;;;9.15;;
61385;SDS011;47256;18.904;-99.054;2023-09-18T13:41:05;13.13;;;8.75;;
61385;SDS011;47256;18.904;-99.054;2023-09-18T13:43:32;12.80;;;8.45;;
61385;SDS011;47256;18.904;-99.054;2023-09-18T13:46:02;13.65;;;8.90;;
61385;SDS011;47256;18.904;-99.054;2023-09-18T13:48:32;11.10;;;7.93;;
61385;SDS011;47256;18.904;-99.054;2023-09-18T13:50:59;14.88;;;9.48;;
61385;SDS011;47256;18.904;-99.054;2023-09-18T13:53:28;15.38;;;8.38;;
61385;SDS011;47256;18.904;-99.054;2023-09-18T13:55:55;14.15;;;9.23;;
61385;SDS011;47256;18.904;-99.054;2023-09-18T13:58:22;10.13;;;9.05;;
61385;SDS011;47256;18.904;-99.054;2023-09-18T14:00:50;18.70;;;9.32;;
61385;SDS011;47256;18.904;-99.054;2023-09-18T14:03:18;19.38;;;11.35;;
61385;SDS011;47256;18.904;-99.054;2023-09-18T14:05:46;19.25;;;10.23;;
61385;SDS011;47256;18.904;-99.054;2023-09-18T14:08:14;24.80;;;10.65;;
61385;SDS011;47256;18.904;-99.054;2023-09-18T14:10:42;19.83;;;11.77;;
61385;SDS011;47256;18.904;-99.054;2023-09-18T14:13:10;18.52;;;12.10;;
61385;SDS011;47256;18.904;-99.054;2023-09-18T14:15:37;22.73;;;12.35;;
61385;SDS011;47256;18.904;-99.054;2023-09-18T14:18:05;23.52;;;12.55;;
61385;SDS011;47256;18.904;-99.054;2023-09-18T14:20:31;22.38;;;13.35;;
61385;SDS011;47256;18.904;-99.054;2023-09-18T14:22:59;26.45;;;14.40;;
61385;SDS011;47256;18.904;-99.054;2023-09-18T14:25:25;21.08;;;13.25;;
61385;SDS011;47256;18.904;-99.054;2023-09-18T14:27:53;21.10;;;13.60;;
61385;SDS011;47256;18.904;-99.054;2023-09-18T14:30:20;29.13;;;16.92;;